This is the latest recevied weather packets stored in our database for station/object IN3BXS. If no packets are shown the sender has not sent any weather packets the latest 1 day(s).
| Time | Temp. | Humidity | Pressure | Rain* | Wind** | Luminosity | Snow |
|---|---|---|---|---|---|---|---|
| 1836274609 | 12.22° C | 44% | 1024.8 hPa | 0 mm | 0 m/s | - | - |
| 1777995026 | 10° C | 43% | 1008.8 hPa | 0 mm | 0 m/s | - | - |
| 1777993225 | 9.44° C | 43% | 1008.9 hPa | 0 mm | 0 m/s | - | - |
| 1777991425 | 9.44° C | 43% | 1008.9 hPa | 0 mm | 0 m/s | - | - |
| 1777989626 | 9.44° C | 44% | 1010 hPa | 0 mm | 0 m/s | - | - |
| 1777987832 | 10° C | 42% | 1009.8 hPa | 0 mm | 0 m/s | - | - |
| 1777986025 | 10° C | 43% | 1009.9 hPa | 0 mm | 0 m/s | - | - |
| 1777984226 | 10° C | 42% | 1009.8 hPa | 0 mm | 0 m/s | - | - |
| 1777982425 | 9.44° C | 48% | 1010.1 hPa | 0 mm | 0 m/s | - | - |
| 1777980625 | 9.44° C | 47% | 1010.2 hPa | 1.02 mm | 0 m/s | - | - |
| 1777977025 | 9.44° C | 42% | 1010.2 hPa | 0 mm | 0 m/s | - | - |
| 1777975225 | 9.44° C | 42% | 1010.2 hPa | 0 mm | 0 m/s | - | - |
| 1777973425 | 9.44° C | 44% | 1010.1 hPa | 0 mm | 0 m/s | - | - |
| 1777971625 | 9.44° C | 40% | 1011.1 hPa | 0 mm | 0 m/s | - | - |
| 1777969825 | 10.56° C | 36% | 1009.6 hPa | 0 mm | 0 m/s | - | - |
| 1777968025 | 11.11° C | 29% | 1009.4 hPa | 0 mm | 0 m/s | - | - |
| 1777966225 | 11.11° C | 29% | 1009.3 hPa | 0 mm | 0 m/s | - | - |
| 1777964425 | 11.11° C | 30% | 1009.5 hPa | 0 mm | 0 m/s | - | - |
| 1777962625 | 10.56° C | 32% | 1009.7 hPa | 0 mm | 0 m/s | - | - |
| 1777960825 | 10° C | 33% | 1009.8 hPa | 0 mm | 0 m/s | - | - |
| 1777959026 | 9.44° C | 32% | 1010 hPa | 0 mm | 0 m/s | - | - |
| 1777957226 | 8.89° C | 36% | 1010.4 hPa | 0 mm | 0 m/s | - | - |
| 1777955426 | 7.78° C | 35% | 1010.8 hPa | 0 mm | 0 m/s | - | - |
| 1777953625 | 6.67° C | 38% | 1012.4 hPa | 0 mm | 0 m/s | - | - |
| 1777951825 | 7.22° C | 32% | 1012.4 hPa | 0 mm | 0 m/s | - | - |
* Rain latest hour (hover to see other rain measurements)
** Current wind speed in m/s (hover to see current wind gust speed)